Championnats de Nationale 2 d'été

Compétition Interrégionale

GRAND-COURONNE

Du Vendredi 08 Juillet 2016 au Dimanche 10 Juillet 2016

Bassin de 50m

100 Dos Dames

Finale A

Nom Année Temps Pts Club Pays
1 VILLETTE Margot 1999 1:08:17 1162 OCTEVILLE NATATION FRA
2 BERSOT Lucie 1999 1:08:30 1158 C REDON NATATION FRA
3 DREANO Sarah 2000 1:08:53 1152 UN PLOËRMEL FRA
4 LABEQUE Carla 2001 1:09:00 1139 AQUATIC CLUB BOURGES FRA
5 WEYD Esther 1998 1:09:82 1116 LA ROCHE-SUR-YON NATATION FRA
6 PINATON Maud 2002 1:09:92 1113 LA NAT'SUZERAINE FRA
7 VILLON Nihèle 2000 1:11:23 1077 EN CAEN FRA
8 ROUE Milanda 2000 1:11:55 1068 CN BREST FRA

Finale B

Nom Année Temps Pts Club Pays
1 TOUZÉ Lénaïck 2001 1:09:91 1113 ESPÉRANCE VAILLANTE GRANVILLE FRA
2 LEPRINCE Nora 2001 1:10:35 1101 COMBOURG NATATION FRA
3 ORMIERES Séphora 2002 1:10:64 1093 CN BREST FRA
4 DENNETIERE Syana 1997 1:10:84 1087 EVREUX A.L.M.NATATION FRA
5 LEMONNIER-MURARI Emma 2001 1:10:98 1084 OCTEVILLE NATATION FRA
6 GAUTIER Klervi 2002 1:11:03 1082 CN GUINGAMP FRA
7 JOLLY Melhya 1997 1:12:16 1051 SALBRIS NATATION FRA
8 VAIDIE Jade 2001 1:12:24 1049 ANGERS NATATION FRA

Finale C

Nom Année Temps Pts Club Pays
1 VILLETTE Zoé 2002 1:10:70 1091 OCTEVILLE NATATION FRA
2 CORN Alicia 2002 1:11:07 1081 AQUATIC CLUB BOURGES FRA
3 CORVAISIER Louise 2002 1:11:20 1078 ANGERS NATATION FRA
4 BESNARD Auriane 2001 1:11:34 1074 CHARTRES METROPOLE NAT FRA
5 JIGOREL Flavie 2001 1:12:46 1043 CHALLANS NATATION FRA
6 MALFER Daïka 2001 1:12:90 1032 LORIENT NATATION FRA
7 SOULAS Léna 2001 1:13:31 1021 ST-NAZAIRE ATLANTIQUE NATATION FRA
8 BREDIF Claire 2001 1:13:55 1014 JOUÉ NATATION FRA

Séries

Nom Année Temps Pts Club Pays
1 DREANO Sarah 2000 1:09:07 1137 UN PLOËRMEL FRA
2 BERSOT Lucie 1999 1:09:52 1124 C REDON NATATION FRA
3 WEYD Esther 1998 1:09:53 1124 LA ROCHE-SUR-YON NATATION FRA
4 LABEQUE Carla 2001 1:09:53 1124 AQUATIC CLUB BOURGES FRA
5 VILLETTE Margot 1999 1:09:60 1122 OCTEVILLE NATATION FRA
6 ROUE Milanda 2000 1:10:28 1103 CN BREST FRA
7 VILLON Nihèle 2000 1:10:56 1095 EN CAEN FRA
8 PINATON Maud 2002 1:10:60 1094 LA NAT'SUZERAINE FRA
9 LEPRINCE Nora 2001 1:10:62 1093 COMBOURG NATATION FRA
10 TOUZÉ Lénaïck 2001 1:10:91 1085 ESPÉRANCE VAILLANTE GRANVILLE FRA
11 ORMIERES Séphora 2002 1:11:24 1076 CN BREST FRA
12 DENNETIERE Syana 1997 1:11:47 1070 EVREUX A.L.M.NATATION FRA
13 GAUTIER Klervi 2002 1:11:51 1069 CN GUINGAMP FRA
14 VAIDIE Jade 2001 1:11:58 1067 ANGERS NATATION FRA
15 JOLLY Melhya 1997 1:11:70 1064 SALBRIS NATATION FRA
16 LEMONNIER-MURARI Emma 2001 1:11:76 1062 OCTEVILLE NATATION FRA
17 CORN Alicia 2002 1:11:79 1061 AQUATIC CLUB BOURGES FRA
18 BESNARD Auriane 2001 1:11:82 1061 CHARTRES METROPOLE NAT FRA
19 VILLETTE Zoé 2002 1:11:85 1060 OCTEVILLE NATATION FRA
20 SOULAS Léna 2001 1:12:03 1055 ST-NAZAIRE ATLANTIQUE NATATION FRA
21 ROBLIN Caroline 1994 1:12:05 1054 CHARTRES METROPOLE NAT FRA
22 CORVAISIER Louise 2002 1:12:07 1054 ANGERS NATATION FRA
23 JIGOREL Flavie 2001 1:12:09 1053 CHALLANS NATATION FRA
24 BESLIC Maelle 1999 1:12:09 1053 DOUARNENEZ NATATION FRA
25 MALFER Daïka 2001 1:12:55 1041 LORIENT NATATION FRA
26 PHAN Tamara 2000 1:12:76 1035 LA ROCHE-SUR-YON NATATION FRA
27 PICOCHE Anne 2000 1:12:83 1033 CN BREST FRA
28 BREDIF Claire 2001 1:13:06 1027 JOUÉ NATATION FRA
29 CHAMPAGNE Marie 2000 1:13:24 1022 CHARTRES METROPOLE NAT FRA
30 BLONDEL Marylou 2000 1:13:36 1019 ES FALAISE FRA
31 VANDEWEGHE Manon 2001 1:13:40 1018 CHALLANS NATATION FRA
32 GALLANT Félicie 2002 1:13:75 1009 LA ROCHE-SUR-YON NATATION FRA
33 DUPRE Sarah 2001 1:13:87 1006 ECN CHARTRES-DE-BRETAGNE FRA
34 ROBILLARD Claire 2000 1:13:97 1003 OCTEVILLE NATATION FRA
35 BLONER Cybille 1999 1:14:05 1001 CHARTRES METROPOLE NAT FRA
36 AUBARD Ambrine 2001 1:14:08 1000 ASN BONNEVAL FRA
37 LEROY Lucie 2000 1:14:18 998 C.N DE VALLEE DE SEINE FRA
38 JOSSELIN Victoire 2002 1:14:24 996 CN BREST FRA
39 BERNA--SEYFRITZ Clémence 2002 1:14:37 993 CLUB DAUPHINS LE BLANC FRA
40 LEMIRE Inola 2001 1:14:49 989 CNM DIEPPE FRA
41 REMY Cassiopee 2001 1:14:50 989 ANDELLE NATATION FRA
42 BOILON Eloïse 2002 1:14:80 981 ESPADON GRAND-QUEVILLY FRA
43 COUPLIERE Keriwenn 2001 1:14:85 980 COMBOURG NATATION FRA
44 BOLUT Pauline 2001 1:14:89 979 LA ROCHE-SUR-YON NATATION FRA
45 LE MAUFF Juliette 2001 1:14:95 977 COMBOURG NATATION FRA
46 ABIVEN Camille 2001 1:15:17 972 LANNION NATATION FRA
47 LEPAUMIER Aude 2002 1:15:24 970 CN COUTANCES FRA
48 CROCHEZ Alyssia 2001 1:15:40 966 C VIKINGS DE ROUEN FRA
49 DUBOS Chloé 2001 1:15:50 963 SC BERNAY NATATION FRA
50 GAIGNON Léna 2001 1:16:19 945 CN FOUGÈRES FRA
51 LAROUR Jeanne 2002 1:16:27 943 ST-NAZAIRE ATLANTIQUE NATATION FRA
52 BLAI Claire 2000 1:16:30 943 UN PLOËRMEL FRA
53 HEAUME Hélène 1999 1:16:62 934 ESPADON GRAND-QUEVILLY FRA
54 SABOT Jeanne 2002 1:16:71 932 C REDON NATATION FRA
55 JAMARD Capucine 2000 1:16:82 929 CNP DE SAINT-LO FRA
56 LAMBERT Laura 2000 1:16:88 928 ST-MALO NATATION FRA
57 MADRELLE Amandine 2000 1:17:06 923 US VENDÔME FRA
58 BOBIN Yelena 2002 1:18:16 896 CN LE HAVRE FRA
59 COTINEAU Gaby 2001 1:19:10 872 A.S GOURNAISIENNE FRA
SAUMUR NATATION